Terminal Aerodrome Forecast
Issued by NWS Pueblo, CO

Home | Current Version | Previous Version | Text Only | Print | Product List | Glossary On
Versions: 1 2 3 4 5 6 7 8 9 10 11 12 13 14 15 16 17 18 19 20 21 22 23 24 25 26 27 28 29 30 31 32 33
000
FTUS45 KPUB 010140 AAA
TAFCOS
TAF AMD
KCOS 010140Z 0102/0124 31009KT P6SM VCTS FEW050 SCT070CB BKN120
     FM010300 13008KT P6SM SCT040 BKN080
     FM010500 VRB06KT P6SM SCT070 SCT120
     FM011700 10011KT P6SM FEW060 SCT080 SCT120=

USA.gov is the U.S. government's official web portal to all federal, state and local government web resources and services.